sensor_id;sensor_type;location;lat;lon;timestamp;pressure;altitude;pressure_sealevel;temperature;humidity
20013;BME280;10167;42.852;23.042;2023-04-15T00:01:16;94091.44;;;9.24;100.00
20013;BME280;10167;42.852;23.042;2023-04-15T00:03:49;94089.97;;;9.11;100.00
20013;BME280;10167;42.852;23.042;2023-04-15T00:06:19;94090.94;;;9.05;100.00
20013;BME280;10167;42.852;23.042;2023-04-15T00:08:48;94107.84;;;9.04;100.00
20013;BME280;10167;42.852;23.042;2023-04-15T00:11:18;94107.78;;;8.99;100.00
20013;BME280;10167;42.852;23.042;2023-04-15T00:13:47;94113.88;;;8.99;100.00
20013;BME280;10167;42.852;23.042;2023-04-15T00:16:16;94111.47;;;8.98;100.00
20013;BME280;10167;42.852;23.042;2023-04-15T00:18:46;94108.09;;;9.02;100.00
20013;BME280;10167;42.852;23.042;2023-04-15T00:21:15;94103.31;;;8.99;100.00
20013;BME280;10167;42.852;23.042;2023-04-15T00:23:44;94115.22;;;9.02;100.00
20013;BME280;10167;42.852;23.042;2023-04-15T00:26:16;94121.78;;;8.99;100.00
20013;BME280;10167;42.852;23.042;2023-04-15T00:28:48;94112.50;;;8.97;100.00
20013;BME280;10167;42.852;23.042;2023-04-15T00:31:18;94108.84;;;8.98;100.00
20013;BME280;10167;42.852;23.042;2023-04-15T00:33:49;94117.88;;;9.02;100.00
20013;BME280;10167;42.852;23.042;2023-04-15T00:36:21;94116.19;;;8.96;100.00
20013;BME280;10167;42.852;23.042;2023-04-15T00:38:50;94121.44;;;8.91;100.00
20013;BME280;10167;42.852;23.042;2023-04-15T00:41:20;94125.16;;;8.95;100.00
20013;BME280;10167;42.852;23.042;2023-04-15T00:43:49;94121.34;;;8.86;100.00
20013;BME280;10167;42.852;23.042;2023-04-15T00:46:19;94117.97;;;8.68;100.00
20013;BME280;10167;42.852;23.042;2023-04-15T00:48:50;94116.88;;;8.31;100.00
20013;BME280;10167;42.852;23.042;2023-04-15T00:51:19;94112.09;;;8.45;100.00
20013;BME280;10167;42.852;23.042;2023-04-15T00:53:48;94104.59;;;8.58;100.00
20013;BME280;10167;42.852;23.042;2023-04-15T00:56:19;94108.38;;;8.62;100.00
20013;BME280;10167;42.852;23.042;2023-04-15T00:58:51;94117.88;;;8.63;100.00
20013;BME280;10167;42.852;23.042;2023-04-15T01:01:20;94116.22;;;8.57;100.00
20013;BME280;10167;42.852;23.042;2023-04-15T01:03:51;94122.50;;;8.34;100.00
20013;BME280;10167;42.852;23.042;2023-04-15T01:06:21;94122.22;;;8.53;100.00
20013;BME280;10167;42.852;23.042;2023-04-15T01:08:50;94123.75;;;8.49;100.00
20013;BME280;10167;42.852;23.042;2023-04-15T01:11:19;94130.31;;;8.46;100.00
20013;BME280;10167;42.852;23.042;2023-04-15T01:13:49;94126.88;;;8.46;100.00
20013;BME280;10167;42.852;23.042;2023-04-15T01:16:19;94126.31;;;8.44;100.00
20013;BME280;10167;42.852;23.042;2023-04-15T01:18:48;94123.69;;;8.44;100.00
20013;BME280;10167;42.852;23.042;2023-04-15T01:21:20;94126.47;;;8.37;100.00
20013;BME280;10167;42.852;23.042;2023-04-15T01:23:50;94118.94;;;8.29;100.00
20013;BME280;10167;42.852;23.042;2023-04-15T01:26:22;94129.84;;;8.32;100.00
20013;BME280;10167;42.852;23.042;2023-04-15T01:28:52;94122.63;;;8.28;100.00
20013;BME280;10167;42.852;23.042;2023-04-15T01:31:21;94122.97;;;8.31;100.00
20013;BME280;10167;42.852;23.042;2023-04-15T01:33:50;94121.00;;;8.27;100.00
20013;BME280;10167;42.852;23.042;2023-04-15T01:36:38;94117.56;;;8.26;100.00
20013;BME280;10167;42.852;23.042;2023-04-15T01:39:07;94115.44;;;8.23;100.00
20013;BME280;10167;42.852;23.042;2023-04-15T01:41:37;94118.09;;;8.23;100.00
20013;BME280;10167;42.852;23.042;2023-04-15T01:44:08;94132.31;;;8.22;100.00
20013;BME280;10167;42.852;23.042;2023-04-15T01:46:40;94133.34;;;8.21;100.00
20013;BME280;10167;42.852;23.042;2023-04-15T01:49:11;94134.03;;;8.17;100.00
20013;BME280;10167;42.852;23.042;2023-04-15T01:51:41;94126.88;;;8.12;100.00
20013;BME280;10167;42.852;23.042;2023-04-15T01:54:13;94136.06;;;8.10;100.00
20013;BME280;10167;42.852;23.042;2023-04-15T01:56:45;94142.84;;;8.06;100.00
20013;BME280;10167;42.852;23.042;2023-04-15T01:59:16;94133.72;;;7.96;100.00
20013;BME280;10167;42.852;23.042;2023-04-15T02:01:46;94148.84;;;8.01;100.00
20013;BME280;10167;42.852;23.042;2023-04-15T02:04:16;94144.97;;;7.92;100.00
20013;BME280;10167;42.852;23.042;2023-04-15T02:06:46;94155.91;;;7.84;100.00
20013;BME280;10167;42.852;23.042;2023-04-15T02:09:17;94155.75;;;7.74;100.00
20013;BME280;10167;42.852;23.042;2023-04-15T02:11:49;94158.53;;;7.67;100.00
20013;BME280;10167;42.852;23.042;2023-04-15T02:14:19;94159.03;;;7.52;100.00
20013;BME280;10167;42.852;23.042;2023-04-15T02:16:50;94163.91;;;7.44;100.00
20013;BME280;10167;42.852;23.042;2023-04-15T02:19:20;94156.69;;;7.39;100.00
20013;BME280;10167;42.852;23.042;2023-04-15T02:21:50;94156.34;;;7.36;100.00
20013;BME280;10167;42.852;23.042;2023-04-15T02:24:21;94155.94;;;7.27;100.00
20013;BME280;10167;42.852;23.042;2023-04-15T02:26:53;94160.84;;;7.23;100.00
20013;BME280;10167;42.852;23.042;2023-04-15T02:29:23;94159.00;;;7.24;100.00
20013;BME280;10167;42.852;23.042;2023-04-15T02:31:53;94154.47;;;7.19;100.00
20013;BME280;10167;42.852;23.042;2023-04-15T02:34:24;94158.81;;;7.14;100.00
20013;BME280;10167;42.852;23.042;2023-04-15T02:36:58;94152.66;;;7.08;100.00
20013;BME280;10167;42.852;23.042;2023-04-15T02:39:28;94154.63;;;7.01;100.00
20013;BME280;10167;42.852;23.042;2023-04-15T02:42:00;94161.25;;;7.04;100.00
20013;BME280;10167;42.852;23.042;2023-04-15T02:44:30;94150.66;;;6.87;100.00
20013;BME280;10167;42.852;23.042;2023-04-15T02:47:04;94157.06;;;6.79;100.00
20013;BME280;10167;42.852;23.042;2023-04-15T02:49:35;94149.19;;;6.68;100.00
20013;BME280;10167;42.852;23.042;2023-04-15T02:52:05;94152.53;;;6.51;100.00
20013;BME280;10167;42.852;23.042;2023-04-15T02:54:37;94152.16;;;6.36;100.00
20013;BME280;10167;42.852;23.042;2023-04-15T02:57:09;94155.25;;;6.22;100.00
20013;BME280;10167;42.852;23.042;2023-04-15T02:59:40;94161.03;;;6.00;100.00
20013;BME280;10167;42.852;23.042;2023-04-15T03:02:10;94164.69;;;5.99;100.00
20013;BME280;10167;42.852;23.042;2023-04-15T03:04:41;94165.28;;;6.01;100.00
20013;BME280;10167;42.852;23.042;2023-04-15T03:07:14;94165.47;;;5.88;100.00
20013;BME280;10167;42.852;23.042;2023-04-15T03:09:45;94165.91;;;5.85;100.00
20013;BME280;10167;42.852;23.042;2023-04-15T03:12:17;94168.31;;;5.87;100.00
20013;BME280;10167;42.852;23.042;2023-04-15T03:14:47;94168.53;;;5.85;100.00
20013;BME280;10167;42.852;23.042;2023-04-15T03:17:17;94168.91;;;5.89;100.00
20013;BME280;10167;42.852;23.042;2023-04-15T03:19:48;94168.41;;;5.80;100.00
20013;BME280;10167;42.852;23.042;2023-04-15T03:22:18;94175.41;;;5.86;100.00
20013;BME280;10167;42.852;23.042;2023-04-15T03:24:49;94171.53;;;5.89;100.00
20013;BME280;10167;42.852;23.042;2023-04-15T03:27:20;94178.47;;;5.83;100.00
20013;BME280;10167;42.852;23.042;2023-04-15T03:29:51;94186.94;;;5.85;100.00
20013;BME280;10167;42.852;23.042;2023-04-15T03:32:23;94192.75;;;5.87;100.00
20013;BME280;10167;42.852;23.042;2023-04-15T03:34:54;94191.75;;;5.88;100.00
20013;BME280;10167;42.852;23.042;2023-04-15T03:37:25;94196.78;;;5.90;100.00
20013;BME280;10167;42.852;23.042;2023-04-15T03:39:55;94194.94;;;5.90;100.00
20013;BME280;10167;42.852;23.042;2023-04-15T03:42:27;94209.91;;;5.90;100.00
20013;BME280;10167;42.852;23.042;2023-04-15T03:44:57;94217.06;;;5.82;100.00
20013;BME280;10167;42.852;23.042;2023-04-15T03:47:27;94219.47;;;5.84;100.00
20013;BME280;10167;42.852;23.042;2023-04-15T03:49:58;94223.31;;;5.70;100.00
20013;BME280;10167;42.852;23.042;2023-04-15T03:52:28;94225.34;;;5.68;100.00
20013;BME280;10167;42.852;23.042;2023-04-15T03:54:58;94226.19;;;5.80;100.00
20013;BME280;10167;42.852;23.042;2023-04-15T03:57:30;94226.06;;;5.75;100.00
20013;BME280;10167;42.852;23.042;2023-04-15T04:00:06;94221.91;;;5.67;100.00
20013;BME280;10167;42.852;23.042;2023-04-15T04:02:41;94227.84;;;5.63;100.00
20013;BME280;10167;42.852;23.042;2023-04-15T04:05:11;94229.69;;;5.62;100.00
20013;BME280;10167;42.852;23.042;2023-04-15T04:07:41;94223.34;;;5.52;100.00
20013;BME280;10167;42.852;23.042;2023-04-15T04:10:13;94211.91;;;5.46;100.00
20013;BME280;10167;42.852;23.042;2023-04-15T04:12:45;94210.00;;;5.35;100.00
20013;BME280;10167;42.852;23.042;2023-04-15T04:15:15;94213.50;;;5.47;100.00
20013;BME280;10167;42.852;23.042;2023-04-15T04:17:46;94204.88;;;5.58;100.00
20013;BME280;10167;42.852;23.042;2023-04-15T04:20:16;94219.44;;;5.72;100.00
20013;BME280;10167;42.852;23.042;2023-04-15T04:22:46;94227.97;;;5.68;100.00
20013;BME280;10167;42.852;23.042;2023-04-15T04:25:17;94228.97;;;5.85;100.00
20013;BME280;10167;42.852;23.042;2023-04-15T04:27:49;94226.84;;;5.94;100.00
20013;BME280;10167;42.852;23.042;2023-04-15T04:30:19;94235.66;;;5.99;100.00
20013;BME280;10167;42.852;23.042;2023-04-15T04:32:49;94228.78;;;5.98;100.00
20013;BME280;10167;42.852;23.042;2023-04-15T04:35:20;94225.28;;;6.04;100.00
20013;BME280;10167;42.852;23.042;2023-04-15T04:37:50;94216.94;;;6.07;100.00
20013;BME280;10167;42.852;23.042;2023-04-15T04:40:21;94220.28;;;6.14;100.00
20013;BME280;10167;42.852;23.042;2023-04-15T04:42:53;94219.50;;;6.26;100.00
20013;BME280;10167;42.852;23.042;2023-04-15T04:45:23;94223.16;;;6.36;100.00
20013;BME280;10167;42.852;23.042;2023-04-15T04:47:54;94226.59;;;6.37;100.00
20013;BME280;10167;42.852;23.042;2023-04-15T04:50:24;94227.75;;;6.41;100.00
20013;BME280;10167;42.852;23.042;2023-04-15T04:52:54;94229.22;;;6.48;100.00
20013;BME280;10167;42.852;23.042;2023-04-15T04:55:25;94218.28;;;6.51;100.00
20013;BME280;10167;42.852;23.042;2023-04-15T04:57:57;94227.78;;;6.64;100.00
20013;BME280;10167;42.852;23.042;2023-04-15T05:00:27;94240.56;;;6.72;100.00
20013;BME280;10167;42.852;23.042;2023-04-15T05:02:58;94242.41;;;6.83;100.00
20013;BME280;10167;42.852;23.042;2023-04-15T05:05:28;94255.13;;;6.86;100.00
20013;BME280;10167;42.852;23.042;2023-04-15T05:07:59;94249.16;;;6.91;100.00
20013;BME280;10167;42.852;23.042;2023-04-15T05:10:29;94257.16;;;6.96;100.00
20013;BME280;10167;42.852;23.042;2023-04-15T05:13:01;94259.44;;;7.04;100.00
20013;BME280;10167;42.852;23.042;2023-04-15T05:15:31;94252.56;;;7.26;100.00
20013;BME280;10167;42.852;23.042;2023-04-15T05:18:02;94258.22;;;7.47;100.00
20013;BME280;10167;42.852;23.042;2023-04-15T05:20:33;94251.63;;;7.73;100.00
20013;BME280;10167;42.852;23.042;2023-04-15T05:23:03;94258.09;;;8.22;100.00
20013;BME280;10167;42.852;23.042;2023-04-15T05:25:34;94256.06;;;8.91;100.00
20013;BME280;10167;42.852;23.042;2023-04-15T05:28:06;94255.22;;;9.89;100.00
20013;BME280;10167;42.852;23.042;2023-04-15T05:30:36;94256.28;;;11.01;100.00
20013;BME280;10167;42.852;23.042;2023-04-15T05:33:06;94269.59;;;12.20;88.65
20013;BME280;10167;42.852;23.042;2023-04-15T05:35:37;94285.13;;;13.30;74.34
20013;BME280;10167;42.852;23.042;2023-04-15T05:38:07;94292.00;;;14.26;67.13
20013;BME280;10167;42.852;23.042;2023-04-15T05:40:38;94302.53;;;13.97;68.50
20013;BME280;10167;42.852;23.042;2023-04-15T05:43:10;94299.69;;;13.68;69.43
20013;BME280;10167;42.852;23.042;2023-04-15T05:45:40;94299.44;;;13.44;70.89
20013;BME280;10167;42.852;23.042;2023-04-15T05:48:11;94303.41;;;12.55;80.24
20013;BME280;10167;42.852;23.042;2023-04-15T05:50:41;94308.34;;;12.21;87.70
20013;BME280;10167;42.852;23.042;2023-04-15T05:53:11;94304.25;;;11.88;87.94
20013;BME280;10167;42.852;23.042;2023-04-15T05:55:42;94302.09;;;11.80;91.59
20013;BME280;10167;42.852;23.042;2023-04-15T05:58:13;94300.50;;;11.79;88.78
20013;BME280;10167;42.852;23.042;2023-04-15T06:00:44;94294.53;;;11.57;90.19
20013;BME280;10167;42.852;23.042;2023-04-15T06:03:15;94297.47;;;11.60;90.73
20013;BME280;10167;42.852;23.042;2023-04-15T06:05:46;94298.28;;;11.61;86.89
20013;BME280;10167;42.852;23.042;2023-04-15T06:08:16;94298.78;;;11.58;86.15
20013;BME280;10167;42.852;23.042;2023-04-15T06:10:46;94306.22;;;11.61;86.98
20013;BME280;10167;42.852;23.042;2023-04-15T06:13:18;94302.81;;;11.71;88.84
20013;BME280;10167;42.852;23.042;2023-04-15T06:15:48;94315.50;;;11.63;84.77
20013;BME280;10167;42.852;23.042;2023-04-15T06:18:19;94318.03;;;11.80;85.14
20013;BME280;10167;42.852;23.042;2023-04-15T06:20:49;94320.22;;;11.93;84.81
20013;BME280;10167;42.852;23.042;2023-04-15T06:23:20;94318.66;;;12.08;85.04
20013;BME280;10167;42.852;23.042;2023-04-15T06:25:50;94324.84;;;12.28;87.40
20013;BME280;10167;42.852;23.042;2023-04-15T06:28:22;94315.59;;;12.41;84.72
20013;BME280;10167;42.852;23.042;2023-04-15T06:30:53;94307.91;;;12.55;85.99
20013;BME280;10167;42.852;23.042;2023-04-15T06:33:23;94314.59;;;12.67;87.29
20013;BME280;10167;42.852;23.042;2023-04-15T06:35:54;94317.25;;;12.88;86.65
20013;BME280;10167;42.852;23.042;2023-04-15T06:38:24;94318.59;;;13.10;87.32
20013;BME280;10167;42.852;23.042;2023-04-15T06:40:54;94331.66;;;13.27;82.47
20013;BME280;10167;42.852;23.042;2023-04-15T06:43:26;94326.59;;;13.51;82.10
20013;BME280;10167;42.852;23.042;2023-04-15T06:45:56;94330.50;;;13.79;76.40
20013;BME280;10167;42.852;23.042;2023-04-15T06:48:27;94336.56;;;14.05;73.21
20013;BME280;10167;42.852;23.042;2023-04-15T06:50:57;94331.47;;;14.18;73.89
20013;BME280;10167;42.852;23.042;2023-04-15T06:53:27;94326.34;;;14.32;71.48
20013;BME280;10167;42.852;23.042;2023-04-15T06:55:58;94328.19;;;14.42;72.18
20013;BME280;10167;42.852;23.042;2023-04-15T06:58:29;94318.81;;;14.55;71.79
20013;BME280;10167;42.852;23.042;2023-04-15T07:01:00;94322.50;;;14.64;70.28
20013;BME280;10167;42.852;23.042;2023-04-15T07:03:30;94320.56;;;14.74;68.34
20013;BME280;10167;42.852;23.042;2023-04-15T07:06:01;94314.63;;;14.82;70.05
20013;BME280;10167;42.852;23.042;2023-04-15T07:08:33;94313.41;;;15.04;67.55
20013;BME280;10167;42.852;23.042;2023-04-15T07:11:04;94314.25;;;15.33;64.06
20013;BME280;10167;42.852;23.042;2023-04-15T07:13:37;94319.78;;;15.71;64.05
20013;BME280;10167;42.852;23.042;2023-04-15T07:16:07;94312.38;;;16.15;64.49
20013;BME280;10167;42.852;23.042;2023-04-15T07:18:37;94316.44;;;16.55;61.48
20013;BME280;10167;42.852;23.042;2023-04-15T07:21:08;94313.06;;;16.87;59.65
20013;BME280;10167;42.852;23.042;2023-04-15T07:23:38;94318.31;;;16.55;56.76
20013;BME280;10167;42.852;23.042;2023-04-15T07:26:08;94320.22;;;16.49;55.60
20013;BME280;10167;42.852;23.042;2023-04-15T07:28:40;94309.38;;;16.83;57.99
20013;BME280;10167;42.852;23.042;2023-04-15T07:31:10;94314.50;;;16.98;56.75
20013;BME280;10167;42.852;23.042;2023-04-15T07:33:41;94314.44;;;17.03;55.88
20013;BME280;10167;42.852;23.042;2023-04-15T07:36:11;94319.53;;;17.19;54.19
20013;BME280;10167;42.852;23.042;2023-04-15T07:38:42;94325.78;;;16.77;53.07
20013;BME280;10167;42.852;23.042;2023-04-15T07:41:12;94331.56;;;17.02;52.12
20013;BME280;10167;42.852;23.042;2023-04-15T07:43:45;94334.22;;;17.21;53.70
20013;BME280;10167;42.852;23.042;2023-04-15T07:46:16;94340.97;;;16.81;53.04
20013;BME280;10167;42.852;23.042;2023-04-15T07:48:46;94340.28;;;17.27;51.68
20013;BME280;10167;42.852;23.042;2023-04-15T07:51:16;94339.00;;;17.24;49.28
20013;BME280;10167;42.852;23.042;2023-04-15T07:53:47;94339.31;;;16.85;46.09
20013;BME280;10167;42.852;23.042;2023-04-15T07:56:18;94329.41;;;16.86;45.97
20013;BME280;10167;42.852;23.042;2023-04-15T07:58:50;94333.22;;;16.98;48.18
20013;BME280;10167;42.852;23.042;2023-04-15T08:01:20;94341.28;;;17.31;45.57
20013;BME280;10167;42.852;23.042;2023-04-15T08:03:50;94347.84;;;17.38;45.58
20013;BME280;10167;42.852;23.042;2023-04-15T08:06:20;94339.38;;;17.50;44.51
20013;BME280;10167;42.852;23.042;2023-04-15T08:08:51;94339.97;;;17.47;44.48
20013;BME280;10167;42.852;23.042;2023-04-15T08:11:22;94342.06;;;17.50;44.58
20013;BME280;10167;42.852;23.042;2023-04-15T08:13:54;94344.41;;;17.38;44.96
20013;BME280;10167;42.852;23.042;2023-04-15T08:16:25;94345.00;;;17.35;46.79
20013;BME280;10167;42.852;23.042;2023-04-15T08:18:55;94338.50;;;17.55;45.33
20013;BME280;10167;42.852;23.042;2023-04-15T08:21:26;94343.34;;;17.71;44.39
20013;BME280;10167;42.852;23.042;2023-04-15T08:23:58;94349.41;;;17.77;43.39
20013;BME280;10167;42.852;23.042;2023-04-15T08:26:29;94346.47;;;17.41;44.48
20013;BME280;10167;42.852;23.042;2023-04-15T08:29:01;94336.66;;;17.04;45.01
20013;BME280;10167;42.852;23.042;2023-04-15T08:31:32;94337.69;;;17.22;45.81
20013;BME280;10167;42.852;23.042;2023-04-15T08:34:02;94333.38;;;17.58;45.49
20013;BME280;10167;42.852;23.042;2023-04-15T08:36:33;94331.66;;;17.62;44.67
20013;BME280;10167;42.852;23.042;2023-04-15T08:39:03;94320.56;;;17.55;43.94
20013;BME280;10167;42.852;23.042;2023-04-15T08:41:39;94322.22;;;17.70;43.74
20013;BME280;10167;42.852;23.042;2023-04-15T08:44:13;94324.63;;;17.99;42.68
20013;BME280;10167;42.852;23.042;2023-04-15T08:46:44;94324.34;;;18.00;44.59
20013;BME280;10167;42.852;23.042;2023-04-15T08:49:16;94318.28;;;18.22;43.58
20013;BME280;10167;42.852;23.042;2023-04-15T08:51:48;94320.97;;;18.22;42.21
20013;BME280;10167;42.852;23.042;2023-04-15T08:54:18;94322.56;;;18.37;42.52
20013;BME280;10167;42.852;23.042;2023-04-15T08:56:49;94321.88;;;18.59;40.78
20013;BME280;10167;42.852;23.042;2023-04-15T08:59:21;94314.19;;;18.52;41.88
20013;BME280;10167;42.852;23.042;2023-04-15T09:01:52;94312.25;;;18.58;40.93
20013;BME280;10167;42.852;23.042;2023-04-15T09:04:24;94300.25;;;18.91;39.80
20013;BME280;10167;42.852;23.042;2023-04-15T09:06:54;94310.91;;;18.82;41.11
20013;BME280;10167;42.852;23.042;2023-04-15T09:09:25;94316.06;;;18.79;39.95
20013;BME280;10167;42.852;23.042;2023-04-15T09:11:56;94314.38;;;18.56;40.17
20013;BME280;10167;42.852;23.042;2023-04-15T09:14:28;94316.91;;;18.25;40.11
20013;BME280;10167;42.852;23.042;2023-04-15T09:17:01;94315.19;;;18.29;39.75
20013;BME280;10167;42.852;23.042;2023-04-15T09:19:32;94312.84;;;18.13;41.57
20013;BME280;10167;42.852;23.042;2023-04-15T09:22:02;94316.88;;;17.97;41.39
20013;BME280;10167;42.852;23.042;2023-04-15T09:24:35;94315.91;;;18.48;39.26
20013;BME280;10167;42.852;23.042;2023-04-15T09:27:06;94299.03;;;19.19;40.00
20013;BME280;10167;42.852;23.042;2023-04-15T09:29:40;94307.31;;;18.87;38.96
20013;BME280;10167;42.852;23.042;2023-04-15T09:32:11;94310.50;;;19.11;38.54
20013;BME280;10167;42.852;23.042;2023-04-15T09:34:42;94314.41;;;18.69;38.70
20013;BME280;10167;42.852;23.042;2023-04-15T09:37:13;94314.94;;;18.94;39.33
20013;BME280;10167;42.852;23.042;2023-04-15T09:39:59;94308.16;;;18.60;37.92
20013;BME280;10167;42.852;23.042;2023-04-15T09:42:30;94310.50;;;18.75;38.78
20013;BME280;10167;42.852;23.042;2023-04-15T09:45:11;94309.19;;;18.86;40.12
20013;BME280;10167;42.852;23.042;2023-04-15T09:47:41;94303.53;;;18.88;39.53
20013;BME280;10167;42.852;23.042;2023-04-15T09:50:12;94313.72;;;18.50;38.50
20013;BME280;10167;42.852;23.042;2023-04-15T09:52:43;94308.47;;;18.31;38.65
20013;BME280;10167;42.852;23.042;2023-04-15T09:55:14;94306.59;;;18.04;41.24
20013;BME280;10167;42.852;23.042;2023-04-15T09:57:45;94304.38;;;18.20;40.38
20013;BME280;10167;42.852;23.042;2023-04-15T10:00:17;94300.25;;;18.91;38.31
20013;BME280;10167;42.852;23.042;2023-04-15T10:02:47;94304.19;;;18.44;39.75
20013;BME280;10167;42.852;23.042;2023-04-15T10:05:18;94308.66;;;18.07;39.57
20013;BME280;10167;42.852;23.042;2023-04-15T10:07:48;94305.69;;;17.49;40.04
20013;BME280;10167;42.852;23.042;2023-04-15T10:10:19;94297.09;;;17.33;39.84
20013;BME280;10167;42.852;23.042;2023-04-15T10:12:50;94300.19;;;17.08;40.24
20013;BME280;10167;42.852;23.042;2023-04-15T10:15:23;94301.50;;;17.43;39.72
20013;BME280;10167;42.852;23.042;2023-04-15T10:17:55;94301.59;;;17.70;41.59
20013;BME280;10167;42.852;23.042;2023-04-15T10:20:28;94306.56;;;18.32;37.78
20013;BME280;10167;42.852;23.042;2023-04-15T10:22:58;94285.94;;;18.60;37.19
20013;BME280;10167;42.852;23.042;2023-04-15T10:25:29;94286.94;;;19.08;36.67
20013;BME280;10167;42.852;23.042;2023-04-15T10:27:59;94283.66;;;19.34;36.97
20013;BME280;10167;42.852;23.042;2023-04-15T10:30:31;94281.78;;;19.56;35.89
20013;BME280;10167;42.852;23.042;2023-04-15T10:33:02;94276.34;;;19.48;34.34
20013;BME280;10167;42.852;23.042;2023-04-15T10:35:33;94280.34;;;19.81;35.93
20013;BME280;10167;42.852;23.042;2023-04-15T10:38:37;94291.78;;;19.96;34.90
20013;BME280;10167;42.852;23.042;2023-04-15T10:41:18;94275.03;;;19.14;35.52
20013;BME280;10167;42.852;23.042;2023-04-15T10:43:51;94281.59;;;19.31;35.48
20013;BME280;10167;42.852;23.042;2023-04-15T10:46:26;94284.66;;;19.15;36.57
20013;BME280;10167;42.852;23.042;2023-04-15T10:49:08;94275.81;;;19.15;37.54
20013;BME280;10167;42.852;23.042;2023-04-15T10:51:39;94273.97;;;19.02;36.33
20013;BME280;10167;42.852;23.042;2023-04-15T10:54:13;94274.00;;;18.88;35.60
20013;BME280;10167;42.852;23.042;2023-04-15T10:56:44;94273.66;;;18.81;36.48
20013;BME280;10167;42.852;23.042;2023-04-15T10:59:15;94280.94;;;19.25;37.90
20013;BME280;10167;42.852;23.042;2023-04-15T11:01:53;94280.91;;;20.09;36.98
20013;BME280;10167;42.852;23.042;2023-04-15T11:04:50;94286.97;;;20.23;33.86
20013;BME280;10167;42.852;23.042;2023-04-15T11:07:34;94281.19;;;19.60;34.42
20013;BME280;10167;42.852;23.042;2023-04-15T11:13:27;94278.22;;;20.49;34.53
20013;BME280;10167;42.852;23.042;2023-04-15T11:15:59;94279.56;;;21.03;35.55
20013;BME280;10167;42.852;23.042;2023-04-15T11:18:32;94271.44;;;20.43;33.92
20013;BME280;10167;42.852;23.042;2023-04-15T11:21:04;94274.03;;;21.08;33.16
20013;BME280;10167;42.852;23.042;2023-04-15T11:23:38;94268.63;;;20.99;32.97
20013;BME280;10167;42.852;23.042;2023-04-15T11:26:10;94268.63;;;21.34;32.61
20013;BME280;10167;42.852;23.042;2023-04-15T11:28:41;94276.69;;;21.34;31.65
20013;BME280;10167;42.852;23.042;2023-04-15T11:31:14;94265.94;;;21.43;32.46
20013;BME280;10167;42.852;23.042;2023-04-15T11:33:53;94273.38;;;21.46;30.78
20013;BME280;10167;42.852;23.042;2023-04-15T11:36:24;94270.06;;;21.95;31.33
20013;BME280;10167;42.852;23.042;2023-04-15T11:38:57;94261.47;;;21.64;31.53
20013;BME280;10167;42.852;23.042;2023-04-15T11:41:28;94262.28;;;21.47;30.42
20013;BME280;10167;42.852;23.042;2023-04-15T11:43:58;94255.09;;;21.68;31.30
20013;BME280;10167;42.852;23.042;2023-04-15T11:46:29;94255.38;;;21.84;30.82
20013;BME280;10167;42.852;23.042;2023-04-15T11:49:01;94259.59;;;21.94;31.01
20013;BME280;10167;42.852;23.042;2023-04-15T11:51:33;94263.88;;;22.03;29.00
20013;BME280;10167;42.852;23.042;2023-04-15T11:54:02;94246.44;;;22.01;32.82
20013;BME280;10167;42.852;23.042;2023-04-15T11:56:32;94244.69;;;21.96;30.49
20013;BME280;10167;42.852;23.042;2023-04-15T11:59:02;94249.09;;;21.63;30.43
20013;BME280;10167;42.852;23.042;2023-04-15T12:01:31;94236.66;;;21.88;31.07
20013;BME280;10167;42.852;23.042;2023-04-15T12:04:10;94241.78;;;22.19;30.68
20013;BME280;10167;42.852;23.042;2023-04-15T12:06:40;94241.66;;;22.06;30.32
20013;BME280;10167;42.852;23.042;2023-04-15T12:09:10;94233.72;;;22.10;29.30
20013;BME280;10167;42.852;23.042;2023-04-15T12:11:42;94232.63;;;22.11;29.01
20013;BME280;10167;42.852;23.042;2023-04-15T12:14:18;94243.88;;;22.63;30.70
20013;BME280;10167;42.852;23.042;2023-04-15T12:16:49;94241.59;;;22.74;27.66
20013;BME280;10167;42.852;23.042;2023-04-15T12:19:26;94243.25;;;23.08;28.33
20013;BME280;10167;42.852;23.042;2023-04-15T12:22:00;94240.13;;;23.72;27.32
20013;BME280;10167;42.852;23.042;2023-04-15T12:24:30;94247.50;;;24.20;27.76
20013;BME280;10167;42.852;23.042;2023-04-15T12:27:04;94261.13;;;24.72;26.91
20013;BME280;10167;42.852;23.042;2023-04-15T12:29:36;94252.56;;;24.82;27.10
20013;BME280;10167;42.852;23.042;2023-04-15T12:32:06;94248.34;;;25.09;27.28
20013;BME280;10167;42.852;23.042;2023-04-15T12:34:38;94251.88;;;23.88;25.46
20013;BME280;10167;42.852;23.042;2023-04-15T12:37:09;94250.66;;;23.52;28.10
20013;BME280;10167;42.852;23.042;2023-04-15T12:39:40;94250.75;;;23.23;27.88
20013;BME280;10167;42.852;23.042;2023-04-15T12:42:10;94251.56;;;22.53;27.88
20013;BME280;10167;42.852;23.042;2023-04-15T12:44:39;94241.84;;;21.46;27.92
20013;BME280;10167;42.852;23.042;2023-04-15T12:47:10;94229.34;;;21.42;29.02
20013;BME280;10167;42.852;23.042;2023-04-15T12:49:41;94247.69;;;22.12;29.96
20013;BME280;10167;42.852;23.042;2023-04-15T12:52:10;94241.66;;;21.51;30.55
20013;BME280;10167;42.852;23.042;2023-04-15T12:54:39;94238.91;;;21.77;31.22
20013;BME280;10167;42.852;23.042;2023-04-15T12:57:08;94242.28;;;21.57;30.26
20013;BME280;10167;42.852;23.042;2023-04-15T12:59:37;94247.88;;;20.57;31.46
20013;BME280;10167;42.852;23.042;2023-04-15T13:02:07;94255.94;;;20.57;31.87
20013;BME280;10167;42.852;23.042;2023-04-15T13:04:36;94259.41;;;20.57;31.06
20013;BME280;10167;42.852;23.042;2023-04-15T13:07:07;94251.03;;;20.42;30.39
20013;BME280;10167;42.852;23.042;2023-04-15T13:09:36;94250.69;;;19.42;31.78
20013;BME280;10167;42.852;23.042;2023-04-15T13:12:06;94250.00;;;19.50;33.18
20013;BME280;10167;42.852;23.042;2023-04-15T13:14:35;94255.78;;;19.43;32.79